createdAt,value
2018-12-12T00:00:22.923Z,96591.00
2018-12-12T00:05:30.833Z,96607.00
2018-12-12T00:10:35.673Z,96612.00
2018-12-12T00:15:40.716Z,96608.00
2018-12-12T00:20:45.608Z,96607.00
2018-12-12T00:25:53.282Z,96619.00
2018-12-12T00:30:56.741Z,96611.00
2018-12-12T00:36:00.198Z,96594.00
2018-12-12T00:41:09.240Z,96595.00
2018-12-12T00:46:17.934Z,96606.00
2018-12-12T00:51:20.866Z,96606.00
2018-12-12T00:56:28.758Z,96605.00
2018-12-12T01:01:32.748Z,96620.00
2018-12-12T01:06:36.326Z,96627.00
2018-12-12T01:11:46.931Z,96625.00
2018-12-12T01:16:50.678Z,96633.00
2018-12-12T01:21:54.394Z,96638.00
2018-12-12T01:26:58.229Z,96629.00
2018-12-12T01:32:01.815Z,96630.00
2018-12-12T01:37:05.496Z,96625.00
2018-12-12T01:42:08.417Z,96633.00
2018-12-12T01:47:12.332Z,96629.00
2018-12-12T01:52:17.319Z,96633.00
2018-12-12T01:57:20.358Z,96632.00
2018-12-12T02:02:23.287Z,96638.00
2018-12-12T02:07:29.554Z,96639.00
2018-12-12T02:12:35.446Z,96632.00
2018-12-12T02:17:38.382Z,96635.00
2018-12-12T02:22:42.297Z,96637.00
2018-12-12T02:27:45.286Z,96636.00
2018-12-12T02:32:48.778Z,96640.00
2018-12-12T02:37:52.719Z,96642.00
2018-12-12T02:42:56.348Z,96642.00
2018-12-12T02:48:00.838Z,96637.00
2018-12-12T02:53:06.758Z,96617.00
2018-12-12T02:58:10.325Z,96630.00
2018-12-12T03:03:15.334Z,96609.00
2018-12-12T03:08:19.211Z,96632.00
2018-12-12T03:13:25.053Z,96633.00
2018-12-12T03:18:27.927Z,96612.00
2018-12-12T03:23:32.734Z,96639.00
2018-12-12T03:28:35.631Z,96633.00
2018-12-12T03:33:39.250Z,96637.00
2018-12-12T03:38:42.248Z,96625.00
2018-12-12T03:43:45.158Z,96623.00
2018-12-12T03:48:48.056Z,96624.00
2018-12-12T03:53:52.765Z,96621.00
2018-12-12T03:58:56.314Z,96618.00
2018-12-12T04:04:05.260Z,96620.00
2018-12-12T04:09:08.258Z,96624.00
2018-12-12T04:14:11.793Z,96619.00
2018-12-12T04:19:14.882Z,96628.00
2018-12-12T04:24:20.602Z,96631.00
2018-12-12T04:29:29.430Z,96633.00
2018-12-12T04:34:33.359Z,96635.00
2018-12-12T04:39:36.958Z,96633.00
2018-12-12T04:44:39.854Z,96635.00
2018-12-12T04:49:43.822Z,96628.00
2018-12-12T04:54:47.310Z,96632.00
2018-12-12T04:59:50.844Z,96641.00
2018-12-12T05:04:54.790Z,96642.00
2018-12-12T05:09:59.441Z,96642.00
2018-12-12T05:15:05.062Z,96650.00
2018-12-12T05:20:08.933Z,96646.00
2018-12-12T05:25:15.550Z,96648.00
2018-12-12T05:30:18.666Z,96646.00
2018-12-12T05:35:22.210Z,96649.00
2018-12-12T05:40:28.381Z,96663.00
2018-12-12T05:45:31.608Z,96659.00
2018-12-12T05:50:35.409Z,96662.00
2018-12-12T05:55:38.364Z,96671.00
2018-12-12T06:00:41.287Z,96679.00
2018-12-12T06:05:44.207Z,96673.00
2018-12-12T06:10:47.219Z,96678.00
2018-12-12T06:15:50.810Z,96688.00
2018-12-12T06:20:54.817Z,96684.00
2018-12-12T06:25:58.338Z,96678.00
2018-12-12T06:31:01.330Z,96685.00
2018-12-12T06:36:04.979Z,96685.00
2018-12-12T06:41:08.028Z,96696.00
2018-12-12T06:46:13.183Z,96686.00
2018-12-12T06:51:19.365Z,96693.00
2018-12-12T06:56:24.027Z,96686.00
2018-12-12T07:01:27.209Z,96693.00
2018-12-12T07:06:30.127Z,96706.00
2018-12-12T07:11:33.845Z,96701.00
2018-12-12T07:16:36.778Z,96712.00
2018-12-12T07:21:40.444Z,96708.00
2018-12-12T07:26:44.034Z,96714.00
2018-12-12T07:31:47.959Z,96725.00
2018-12-12T07:36:51.885Z,96735.00
2018-12-12T07:41:56.586Z,96729.00
2018-12-12T07:47:02.504Z,96736.00
2018-12-12T07:52:08.319Z,96746.00
2018-12-12T07:57:12.726Z,96733.00
2018-12-12T08:02:16.302Z,96746.00
2018-12-12T08:07:20.011Z,96743.00
2018-12-12T08:12:25.959Z,96741.00
2018-12-12T08:17:28.890Z,96736.00
2018-12-12T08:22:32.284Z,96746.00
2018-12-12T08:27:35.865Z,96755.00
2018-12-12T08:32:41.778Z,96755.00
2018-12-12T08:37:45.290Z,96755.00
2018-12-12T08:42:48.175Z,96758.00
2018-12-12T08:47:51.128Z,96761.00
2018-12-12T08:52:55.834Z,96751.00
2018-12-12T08:57:58.722Z,96753.00
2018-12-12T09:03:01.678Z,96756.00
2018-12-12T09:08:08.135Z,96771.00
2018-12-12T09:13:16.974Z,96760.00
2018-12-12T09:18:20.390Z,96762.00
2018-12-12T09:23:28.293Z,96772.00
2018-12-12T09:28:31.354Z,96767.00
2018-12-12T09:33:36.871Z,96772.00
2018-12-12T09:38:42.328Z,96767.00
2018-12-12T09:43:46.490Z,96764.00
2018-12-12T09:48:51.432Z,96736.00
2018-12-12T09:54:01.382Z,96763.00
2018-12-12T09:59:07.398Z,96763.00
2018-12-12T10:04:10.342Z,96757.00
2018-12-12T10:09:14.107Z,96752.00
2018-12-12T10:14:17.915Z,96762.00
2018-12-12T10:19:20.918Z,96758.00
2018-12-12T10:24:24.114Z,96763.00
2018-12-12T10:29:27.914Z,96765.00
2018-12-12T10:34:31.326Z,96754.00
2018-12-12T10:39:35.377Z,96754.00
2018-12-12T10:44:38.959Z,96756.00
2018-12-12T10:49:41.896Z,96756.00
2018-12-12T10:54:45.406Z,96753.00
2018-12-12T10:59:49.442Z,96748.00
2018-12-12T11:04:56.830Z,96745.00
2018-12-12T11:10:00.322Z,96742.00
2018-12-12T11:15:03.610Z,96743.00
2018-12-12T11:20:07.394Z,96735.00
2018-12-12T11:25:10.866Z,96740.00
2018-12-12T11:30:14.390Z,96739.00
2018-12-12T11:35:17.278Z,96741.00
2018-12-12T11:40:20.110Z,96736.00
2018-12-12T11:45:23.930Z,96730.00
2018-12-12T11:50:27.454Z,96732.00
2018-12-12T11:55:31.005Z,96734.00
2018-12-12T12:00:33.939Z,96722.00
2018-12-12T12:05:39.814Z,96729.00
2018-12-12T12:10:42.747Z,96721.00
2018-12-12T12:15:50.559Z,96731.00
2018-12-12T12:20:58.344Z,96703.00
2018-12-12T12:26:01.927Z,96720.00
2018-12-12T12:31:08.114Z,96715.00
2018-12-12T12:36:14.016Z,96713.00
2018-12-12T12:41:18.463Z,96707.00
2018-12-12T12:46:22.894Z,96721.00
2018-12-12T12:51:28.786Z,96717.00
2018-12-12T12:56:37.646Z,96711.00
2018-12-12T13:01:46.547Z,96712.00
2018-12-12T13:06:49.618Z,96701.00
2018-12-12T13:11:52.605Z,96705.00
2018-12-12T13:16:56.491Z,96697.00
2018-12-12T13:22:00.030Z,96691.00
2018-12-12T13:27:05.094Z,96695.00
2018-12-12T13:32:08.978Z,96693.00
2018-12-12T13:37:12.506Z,96696.00
2018-12-12T13:42:16.406Z,96694.00
2018-12-12T13:47:19.282Z,96694.00
2018-12-12T13:52:25.274Z,96693.00
2018-12-12T13:57:28.217Z,96692.00
2018-12-12T14:02:34.386Z,96695.00
2018-12-12T14:07:41.978Z,96690.00
2018-12-12T14:12:45.022Z,96689.00
2018-12-12T14:17:48.715Z,96694.00
2018-12-12T14:22:57.678Z,96694.00
2018-12-12T14:28:00.919Z,96692.00
2018-12-12T14:33:04.611Z,96692.00
2018-12-12T14:38:09.506Z,96692.00
2018-12-12T14:43:12.496Z,96682.00
2018-12-12T14:48:15.325Z,96688.00
2018-12-12T14:53:19.961Z,96693.00
2018-12-12T14:58:23.486Z,96694.00
2018-12-12T15:03:26.995Z,96679.00
2018-12-12T15:08:30.520Z,96694.00
2018-12-12T15:13:33.986Z,96688.00
2018-12-12T15:18:40.195Z,96691.00
2018-12-12T15:23:44.006Z,96690.00
2018-12-12T15:28:46.910Z,96682.00
2018-12-12T15:33:50.612Z,96688.00
2018-12-12T15:38:53.525Z,96679.00
2018-12-12T15:43:56.471Z,96681.00
2018-12-12T15:49:02.499Z,96681.00
2018-12-12T15:54:05.444Z,96682.00
2018-12-12T15:59:10.162Z,96685.00
2018-12-12T16:04:14.250Z,96689.00
2018-12-12T16:09:17.992Z,96678.00
2018-12-12T16:14:20.903Z,96684.00
2018-12-12T16:19:27.227Z,96683.00
2018-12-12T16:24:30.504Z,96686.00
2018-12-12T16:29:37.353Z,96682.00
2018-12-12T16:34:40.923Z,96682.00
2018-12-12T16:39:47.819Z,96683.00
2018-12-12T16:44:51.746Z,96676.00
2018-12-12T16:49:57.090Z,96684.00
2018-12-12T16:54:59.990Z,96687.00
2018-12-12T17:00:07.317Z,96687.00
2018-12-12T17:05:11.014Z,96681.00
2018-12-12T17:10:14.574Z,96684.00
2018-12-12T17:15:18.046Z,96681.00
2018-12-12T17:20:21.036Z,96677.00
2018-12-12T17:25:24.543Z,96682.00
2018-12-12T17:30:28.114Z,96679.00
2018-12-12T17:35:30.958Z,96674.00
2018-12-12T17:40:33.882Z,96675.00
2018-12-12T17:45:39.782Z,96678.00
2018-12-12T17:50:43.570Z,96677.00
2018-12-12T17:55:46.476Z,96687.00
2018-12-12T18:00:52.343Z,96684.00
2018-12-12T18:05:59.226Z,96675.00
2018-12-12T18:11:02.178Z,96679.00
2018-12-12T18:16:06.722Z,96680.00
2018-12-12T18:21:10.615Z,96679.00
2018-12-12T18:26:16.042Z,96675.00
2018-12-12T18:31:19.570Z,96665.00
2018-12-12T18:36:26.763Z,96666.00
2018-12-12T18:41:31.274Z,96674.00
2018-12-12T18:46:38.902Z,96665.00
2018-12-12T18:51:48.136Z,96669.00
2018-12-12T18:56:54.290Z,96664.00
2018-12-12T19:02:00.359Z,96664.00
2018-12-12T19:07:03.483Z,96661.00
2018-12-12T19:12:13.419Z,96661.00
2018-12-12T19:17:19.390Z,96664.00
2018-12-12T19:22:22.262Z,96657.00
2018-12-12T19:27:25.410Z,96658.00
2018-12-12T19:32:28.304Z,96662.00
2018-12-12T19:37:37.337Z,96652.00
2018-12-12T19:42:42.812Z,96654.00
2018-12-12T19:47:45.778Z,96661.00
2018-12-12T19:52:48.757Z,96665.00
2018-12-12T19:57:52.731Z,96668.00
2018-12-12T20:02:56.390Z,96656.00
2018-12-12T20:07:59.377Z,96661.00
2018-12-12T20:13:02.265Z,96658.00
2018-12-12T20:18:05.662Z,96657.00
2018-12-12T20:23:09.280Z,96658.00
2018-12-12T20:28:15.144Z,96659.00
2018-12-12T20:33:18.798Z,96659.00
2018-12-12T20:38:22.682Z,96652.00
2018-12-12T20:43:32.526Z,96661.00
2018-12-12T20:48:41.191Z,96653.00
2018-12-12T20:53:49.826Z,96659.00
2018-12-12T20:58:58.790Z,96653.00
2018-12-12T21:04:01.708Z,96655.00
2018-12-12T21:09:11.672Z,96652.00
2018-12-12T21:14:20.353Z,96655.00
2018-12-12T21:50:49.848Z,96640.00
2018-12-12T21:55:58.702Z,96638.00
2018-12-12T22:01:07.416Z,96636.00
2018-12-12T22:06:16.119Z,96634.00
2018-12-12T22:11:20.032Z,96630.00
2018-12-12T22:16:29.574Z,96623.00
2018-12-12T22:21:39.190Z,96617.00
2018-12-12T22:26:48.569Z,96613.00
2018-12-12T22:31:51.498Z,96623.00
2018-12-12T22:37:00.670Z,96630.00
2018-12-12T22:42:03.882Z,96624.00
2018-12-12T22:47:08.674Z,96626.00
2018-12-12T22:52:11.682Z,96622.00
2018-12-12T22:57:15.451Z,96626.00
2018-12-12T23:02:21.616Z,96621.00
2018-12-12T23:07:27.678Z,96607.00
2018-12-12T23:12:30.541Z,96612.00
2018-12-12T23:17:35.230Z,96613.00
2018-12-12T23:22:38.709Z,96611.00
2018-12-12T23:27:47.502Z,96620.00
2018-12-12T23:32:56.302Z,96610.00
2018-12-12T23:37:59.744Z,96596.00
2018-12-12T23:43:08.686Z,96600.00
2018-12-12T23:48:17.389Z,96602.00
2018-12-12T23:53:26.212Z,96584.00
